Time;durP1;ratioP1;P1;durP2;ratioP2;P2;SDS_P1;SDS_P2;PMS_P1;PMS_P2;Temp;Humidity;BMP_temperature;BMP_pressure;BME280_temperature;BME280_humidity;BME280_pressure;Samples;Min_cycle;Max_cycle;Signal;HPM_P1;HPM_P2
2022/10/22 00:00:23;;;;;;;12.15;5.97;;;;;;;12.30;100.00;100848.34;5263559;28;20454;-84
2022/10/22 00:02:57;;;;;;;9.95;6.13;;;;;;;12.26;100.00;100852.34;5261918;28;20124;-83
2022/10/22 00:05:35;;;;;;;9.32;5.78;;;;;;;12.25;100.00;100851.50;5258142;28;20108;-83
2022/10/22 00:08:06;;;;;;;13.05;6.20;;;;;;;12.19;100.00;100844.09;5265155;28;20041;-83
2022/10/22 00:10:45;;;;;;;8.77;5.95;;;;;;;12.20;100.00;100850.25;5263138;28;21266;-83
2022/10/22 00:13:28;;;;;;;11.43;6.10;;;;;;;12.34;100.00;100847.06;5260408;28;20044;-83
2022/10/22 00:16:09;;;;;;;11.63;6.22;;;;;;;12.20;100.00;100835.09;5266273;28;20022;-83
2022/10/22 00:18:40;;;;;;;13.75;6.20;;;;;;;12.18;100.00;100830.88;5259577;28;20075;-84
2022/10/22 00:21:12;;;;;;;10.90;5.97;;;;;;;12.10;100.00;100835.16;5262133;28;20033;-83
2022/10/22 00:23:43;;;;;;;13.23;5.97;;;;;;;11.99;100.00;100818.47;5267635;28;20037;-83
2022/10/22 00:26:15;;;;;;;11.13;5.80;;;;;;;12.18;100.00;100841.56;5279579;28;20024;-84
2022/10/22 00:28:46;;;;;;;10.95;5.88;;;;;;;12.17;100.00;100839.91;5263200;28;20064;-83
2022/10/22 00:31:19;;;;;;;10.48;6.45;;;;;;;12.17;100.00;100838.06;5268912;28;20032;-83
2022/10/22 00:33:51;;;;;;;13.65;6.20;;;;;;;12.22;100.00;100842.94;5264531;28;20039;-84
2022/10/22 00:36:22;;;;;;;12.07;6.45;;;;;;;12.20;100.00;100847.59;5267673;28;20029;-84
2022/10/22 00:38:53;;;;;;;11.48;6.25;;;;;;;12.15;100.00;100845.41;5263704;28;20452;-84
2022/10/22 00:41:25;;;;;;;8.05;5.75;;;;;;;12.27;100.00;100854.00;5264111;28;20056;-83
2022/10/22 00:44:02;;;;;;;14.75;8.18;;;;;;;12.22;100.00;100851.81;5289390;28;20037;-83
2022/10/22 00:46:37;;;;;;;11.52;7.07;;;;;;;12.32;100.00;100850.88;5256736;28;20156;-84
2022/10/22 00:49:08;;;;;;;12.10;6.68;;;;;;;12.37;100.00;100854.78;5266181;28;20061;-83
2022/10/22 00:51:39;;;;;;;13.40;6.80;;;;;;;12.24;100.00;100849.81;5263071;28;20120;-84
2022/10/22 00:54:11;;;;;;;13.23;6.70;;;;;;;12.31;100.00;100858.06;5262606;28;20339;-84
2022/10/22 00:56:42;;;;;;;9.70;5.90;;;;;;;12.36;100.00;100850.44;5254647;28;20036;-84
2022/10/22 00:59:17;;;;;;;9.45;6.57;;;;;;;12.40;100.00;100853.63;5259291;28;20029;-83
2022/10/22 01:01:49;;;;;;;11.63;6.63;;;;;;;12.26;100.00;100852.34;5260012;28;20029;-84
2022/10/22 01:04:20;;;;;;;14.25;7.40;;;;;;;12.38;100.00;100852.97;5258082;28;20052;-85
2022/10/22 01:06:51;;;;;;;11.70;6.72;;;;;;;12.36;100.00;100852.25;5261200;28;20033;-83
2022/10/22 01:09:33;;;;;;;13.25;6.85;;;;;;;12.41;100.00;100852.63;5258422;28;20036;-84
2022/10/22 01:12:13;;;;;;;15.60;6.97;;;;;;;12.41;100.00;100853.50;5264542;28;20030;-83
2022/10/22 01:14:53;;;;;;;11.32;6.55;;;;;;;12.45;100.00;100859.38;5262715;28;20026;-84
2022/10/22 01:17:49;;;;;;;12.15;7.20;;;;;;;12.55;100.00;100870.84;5262234;28;20080;-85
2022/10/22 01:20:55;;;;;;;13.20;6.90;;;;;;;12.61;100.00;100859.50;5268160;28;20044;-84
2022/10/22 01:23:48;;;;;;;16.40;7.05;;;;;;;12.58;100.00;100846.41;5275200;28;20029;-84
2022/10/22 01:26:32;;;;;;;16.23;6.88;;;;;;;12.49;100.00;100840.16;5268293;28;20041;-84
2022/10/22 01:29:18;;;;;;;12.70;6.72;;;;;;;12.53;100.00;100847.88;5261838;28;20485;-84
2022/10/22 01:31:58;;;;;;;12.98;7.43;;;;;;;12.51;100.00;100847.19;5269630;28;20029;-83
2022/10/22 01:34:31;;;;;;;12.95;6.88;;;;;;;12.51;100.00;100847.19;5264253;28;20033;-83
2022/10/22 01:37:02;;;;;;;17.38;7.20;;;;;;;12.47;100.00;100849.34;5265483;28;20456;-84
2022/10/22 01:39:35;;;;;;;14.10;7.55;;;;;;;12.54;100.00;100847.72;5264694;28;20037;-84
2022/10/22 01:42:07;;;;;;;13.30;7.25;;;;;;;12.52;100.00;100843.50;5266772;28;20068;-84
2022/10/22 01:44:40;;;;;;;19.55;7.25;;;;;;;12.45;100.00;100846.81;5262612;28;20037;-83
2022/10/22 01:47:49;;;;;;;13.35;7.32;;;;;;;12.49;100.00;100837.47;5268959;28;20068;-83
2022/10/22 01:50:59;;;;;;;28.70;9.02;;;;;;;12.45;100.00;100841.47;5267149;28;20025;-84
2022/10/22 01:53:49;;;;;;;12.82;7.22;;;;;;;12.46;100.00;100840.50;5260950;28;20038;-84
2022/10/22 01:56:47;;;;;;;17.90;7.25;;;;;;;12.43;100.00;100838.13;5266615;28;20052;-84
2022/10/22 01:59:30;;;;;;;13.45;7.22;;;;;;;12.47;100.00;100844.84;5263707;28;20038;-85
2022/10/22 02:02:13;;;;;;;14.80;8.15;;;;;;;12.43;100.00;100845.28;5266580;28;20596;-84
2022/10/22 02:04:59;;;;;;;15.50;7.65;;;;;;;12.35;100.00;100851.41;5262391;28;20059;-84
2022/10/22 02:07:38;;;;;;;13.32;7.30;;;;;;;12.29;100.00;100844.84;5264378;28;20041;-84
2022/10/22 02:10:11;;;;;;;14.57;7.43;;;;;;;12.24;100.00;100846.31;5263390;28;20037;-85
2022/10/22 02:12:47;;;;;;;16.80;7.80;;;;;;;12.26;100.00;100855.03;5268519;28;20025;-84
2022/10/22 02:15:22;;;;;;;19.13;7.83;;;;;;;12.28;100.00;100856.53;5262346;28;20037;-84
2022/10/22 02:17:56;;;;;;;14.43;7.68;;;;;;;12.29;100.00;100860.06;5263512;28;20063;-85
2022/10/22 02:20:31;;;;;;;17.58;7.70;;;;;;;12.16;100.00;100843.56;5264115;28;20116;-85
2022/10/22 02:23:03;;;;;;;18.70;8.18;;;;;;;12.18;100.00;100850.41;5262909;28;20033;-85
2022/10/22 02:25:39;;;;;;;19.98;8.95;;;;;;;12.20;100.00;100848.47;5264868;28;20033;-85
2022/10/22 02:28:25;;;;;;;16.35;8.50;;;;;;;12.24;100.00;100855.16;5259388;28;20038;-85
2022/10/22 02:31:06;;;;;;;16.30;8.32;;;;;;;12.21;100.00;100842.09;5261738;28;20053;-84
2022/10/22 02:33:44;;;;;;;16.77;8.40;;;;;;;12.30;100.00;100851.88;5255832;28;20029;-85
2022/10/22 02:36:16;;;;;;;18.63;8.90;;;;;;;12.30;100.00;100848.34;5294871;28;20080;-85
2022/10/22 02:38:50;;;;;;;17.38;8.85;;;;;;;12.39;100.00;100851.94;5271232;28;21863;-85
2022/10/22 02:41:22;;;;;;;16.85;9.07;;;;;;;12.38;100.00;100847.59;5264616;28;20036;-85
2022/10/22 02:43:54;;;;;;;17.52;9.13;;;;;;;12.33;100.00;100856.09;5262676;28;20021;-85
2022/10/22 02:46:25;;;;;;;18.10;8.73;;;;;;;12.34;100.00;100848.88;5273798;28;20105;-85
2022/10/22 02:48:57;;;;;;;16.10;8.60;;;;;;;12.25;100.00;100853.31;5274496;28;20044;-85
2022/10/22 02:51:28;;;;;;;14.77;9.02;;;;;;;12.26;100.00;100857.69;5273444;28;20078;-85
2022/10/22 02:53:59;;;;;;;17.05;9.38;;;;;;;12.22;100.00;100861.66;5273332;28;20025;-84
2022/10/22 02:56:31;;;;;;;14.95;8.63;;;;;;;12.18;100.00;100857.59;5271481;28;20529;-86
2022/10/22 02:59:02;;;;;;;15.75;8.30;;;;;;;12.20;100.00;100859.16;5295813;28;20189;-85
2022/10/22 03:01:34;;;;;;;14.75;9.00;;;;;;;12.12;100.00;100861.75;5271263;28;20045;-85
2022/10/22 03:04:05;;;;;;;14.63;8.95;;;;;;;12.04;100.00;100858.97;5273044;28;21008;-85
2022/10/22 03:06:36;;;;;;;13.98;8.20;;;;;;;12.15;100.00;100865.94;5268073;28;20034;-85
2022/10/22 03:09:07;;;;;;;14.90;8.93;;;;;;;12.04;100.00;100865.19;5303561;28;32527;-85
2022/10/22 03:11:39;;;;;;;17.63;9.27;;;;;;;12.07;100.00;100880.06;5263883;28;20112;-85
2022/10/22 03:14:10;;;;;;;17.23;8.65;;;;;;;11.99;100.00;100861.25;5265425;28;20383;-85
2022/10/22 03:16:42;;;;;;;22.65;9.27;;;;;;;12.03;100.00;100870.69;5264356;28;20044;-85
2022/10/22 03:19:13;;;;;;;19.58;9.25;;;;;;;11.99;100.00;100871.94;5267652;28;20464;-85
2022/10/22 03:21:49;;;;;;;21.42;9.35;;;;;;;12.01;100.00;100872.63;5262479;28;20033;-85
2022/10/22 03:24:28;;;;;;;16.08;8.40;;;;;;;12.15;100.00;100872.13;5264998;28;20056;-85
2022/10/22 03:27:00;;;;;;;15.15;8.75;;;;;;;12.12;100.00;100877.78;5263613;28;20021;-85
2022/10/22 03:29:36;;;;;;;17.02;8.77;;;;;;;12.20;100.00;100875.19;5270386;28;20067;-85
2022/10/22 03:32:07;;;;;;;17.58;8.73;;;;;;;12.12;100.00;100866.25;5259753;28;20030;-86
2022/10/22 03:34:39;;;;;;;16.10;9.07;;;;;;;12.18;100.00;100879.00;5267673;28;20397;-85
2022/10/22 03:37:11;;;;;;;12.48;8.45;;;;;;;12.16;100.00;100884.50;5261169;28;20390;-84
2022/10/22 03:39:43;;;;;;;17.48;8.90;;;;;;;12.06;100.00;100873.88;5274289;28;20025;-85
2022/10/22 03:42:15;;;;;;;19.35;8.43;;;;;;;12.17;100.00;100890.69;5261343;28;20596;-85
2022/10/22 03:44:46;;;;;;;19.17;8.48;;;;;;;12.16;100.00;100889.84;5267205;28;20017;-85
2022/10/22 03:47:18;;;;;;;18.35;8.77;;;;;;;12.25;100.00;100896.13;5262458;28;20068;-85
2022/10/22 03:49:50;;;;;;;16.67;8.70;;;;;;;12.23;100.00;100900.78;5297728;28;20029;-85
2022/10/22 03:52:22;;;;;;;17.85;8.45;;;;;;;12.21;100.00;100898.25;5262409;28;20033;-85
2022/10/22 03:54:53;;;;;;;22.05;8.30;;;;;;;12.20;100.00;100901.94;5266440;28;20036;-87
2022/10/22 03:57:24;;;;;;;20.83;7.95;;;;;;;12.22;100.00;100907.97;5270494;28;20032;-84
2022/10/22 03:59:56;;;;;;;16.65;7.82;;;;;;;12.32;100.00;100912.41;5270852;28;20449;-84
2022/10/22 04:02:27;;;;;;;20.92;8.63;;;;;;;12.36;100.00;100905.75;5270621;28;20053;-85
2022/10/22 04:04:58;;;;;;;19.63;8.52;;;;;;;12.32;100.00;100904.38;5266036;28;20064;-85
2022/10/22 04:07:30;;;;;;;20.20;8.15;;;;;;;12.38;100.00;100896.59;5265297;28;20501;-85
2022/10/22 04:10:01;;;;;;;21.60;8.27;;;;;;;12.44;100.00;100905.81;5262917;28;20029;-86
2022/10/22 04:12:32;;;;;;;20.90;7.25;;;;;;;12.46;100.00;100904.69;5269488;28;20016;-85
2022/10/22 04:15:04;;;;;;;17.55;7.80;;;;;;;12.57;100.00;100908.97;5301198;27;20021;-85
2022/10/22 04:17:36;;;;;;;20.55;8.07;;;;;;;12.48;100.00;100913.41;5271056;28;20377;-84
2022/10/22 04:20:08;;;;;;;26.00;8.38;;;;;;;12.54;100.00;100917.28;5269378;28;20467;-85
2022/10/22 04:22:43;;;;;;;21.23;8.00;;;;;;;12.48;100.00;100921.44;5267735;28;20030;-84
2022/10/22 04:25:15;;;;;;;20.05;8.05;;;;;;;12.53;100.00;100917.44;5266409;28;20047;-85
2022/10/22 04:27:46;;;;;;;16.77;7.78;;;;;;;12.51;100.00;100914.91;5273174;28;20029;-84
2022/10/22 04:30:17;;;;;;;18.70;7.00;;;;;;;12.50;100.00;100905.22;5265006;28;20024;-85
2022/10/22 04:32:49;;;;;;;21.15;7.35;;;;;;;12.49;100.00;100903.53;5263533;28;20126;-85
2022/10/22 04:35:20;;;;;;;21.77;7.85;;;;;;;12.55;100.00;100920.81;5264487;28;20029;-85
2022/10/22 04:37:51;;;;;;;20.60;7.78;;;;;;;12.59;100.00;100925.72;5269139;28;20525;-84
2022/10/22 04:40:22;;;;;;;21.55;7.30;;;;;;;12.61;100.00;100912.19;5267910;28;20078;-85
2022/10/22 04:42:54;;;;;;;22.33;7.97;;;;;;;12.63;100.00;100919.03;5267432;28;20028;-84
2022/10/22 04:45:25;;;;;;;21.02;7.35;;;;;;;12.65;100.00;100919.72;5263792;28;20029;-85
2022/10/22 04:47:56;;;;;;;24.33;7.82;;;;;;;12.61;100.00;100913.00;5255374;28;20088;-85
2022/10/22 04:50:28;;;;;;;19.25;7.22;;;;;;;12.68;100.00;100924.78;5260616;28;20036;-85
2022/10/22 04:53:00;;;;;;;15.73;6.95;;;;;;;12.65;100.00;100916.22;5262722;28;20084;-84
2022/10/22 04:55:31;;;;;;;18.55;7.20;;;;;;;12.74;100.00;100925.97;5260890;28;20048;-84
2022/10/22 04:58:02;;;;;;;20.25;7.20;;;;;;;12.77;100.00;100923.00;5259230;28;20385;-85
2022/10/22 05:00:34;;;;;;;21.40;7.93;;;;;;;12.79;100.00;100923.69;5262866;28;20036;-84
2022/10/22 05:03:06;;;;;;;18.40;7.30;;;;;;;12.76;100.00;100924.03;5264266;28;20041;-85
2022/10/22 05:05:37;;;;;;;18.45;6.70;;;;;;;12.79;100.00;100926.38;5264810;28;20033;-84
2022/10/22 05:08:08;;;;;;;18.92;7.53;;;;;;;12.85;100.00;100928.44;5265617;28;20041;-84
2022/10/22 05:10:39;;;;;;;23.75;7.75;;;;;;;12.88;100.00;100929.13;5261680;28;20038;-84
2022/10/22 05:13:11;;;;;;;21.80;7.55;;;;;;;12.90;100.00;100916.41;5259875;28;20091;-85
2022/10/22 05:15:42;;;;;;;20.70;7.50;;;;;;;13.00;100.00;100927.88;5258782;28;20033;-84
2022/10/22 05:18:13;;;;;;;15.07;6.80;;;;;;;13.10;100.00;100927.78;5291633;28;20036;-84
2022/10/22 05:20:45;;;;;;;16.77;6.82;;;;;;;13.12;100.00;100931.97;5259562;28;20529;-84
2022/10/22 05:23:16;;;;;;;16.38;6.03;;;;;;;13.20;100.00;100934.72;5263418;28;20036;-85
2022/10/22 05:25:47;;;;;;;19.35;6.25;;;;;;;13.20;100.00;100940.06;5293139;28;20056;-84
2022/10/22 05:28:19;;;;;;;16.33;6.72;;;;;;;13.21;100.00;100947.09;5259803;28;20045;-84
2022/10/22 05:30:58;;;;;;;16.83;6.60;;;;;;;13.30;100.00;100944.47;5261182;28;20115;-84
2022/10/22 05:33:30;;;;;;;18.67;6.65;;;;;;;13.27;100.00;100937.59;5261206;28;20430;-84
2022/10/22 05:36:04;;;;;;;21.70;5.90;;;;;;;13.24;100.00;100932.56;5292726;28;20071;-84
2022/10/22 05:38:36;;;;;;;16.10;5.65;;;;;;;13.22;100.00;100943.44;5263158;28;20064;-85
2022/10/22 05:41:10;;;;;;;17.65;5.95;;;;;;;13.23;100.00;100946.94;5264461;28;20129;-84
2022/10/22 05:43:42;;;;;;;17.58;6.60;;;;;;;13.21;100.00;100946.25;5258417;28;20061;-84
2022/10/22 05:46:15;;;;;;;14.48;5.25;;;;;;;13.19;100.00;100945.59;5261584;28;20139;-85
2022/10/22 05:48:51;;;;;;;11.82;4.60;;;;;;;13.26;100.00;100954.66;5260688;28;20046;-84
2022/10/22 05:51:24;;;;;;;10.27;4.63;;;;;;;13.18;100.00;100954.59;5269590;28;20029;-85
2022/10/22 05:53:57;;;;;;;13.13;4.13;;;;;;;13.21;100.00;100957.81;5258961;28;20017;-85
2022/10/22 05:56:31;;;;;;;12.18;4.40;;;;;;;13.13;100.00;100959.59;5259635;28;20152;-85
2022/10/22 05:59:02;;;;;;;8.85;4.28;;;;;;;13.13;100.00;100963.13;5263502;28;20028;-85
2022/10/22 06:01:34;;;;;;;12.50;4.40;;;;;;;13.05;100.00;100963.06;5260783;28;20398;-85
2022/10/22 06:04:09;;;;;;;14.18;4.82;;;;;;;13.01;100.00;100961.69;5258309;28;20426;-85
2022/10/22 06:06:46;;;;;;;13.35;4.47;;;;;;;13.03;100.00;100975.75;5256933;28;20433;-85
2022/10/22 06:09:18;;;;;;;11.70;4.03;;;;;;;13.00;100.00;100984.94;5264748;28;20788;-85
2022/10/22 06:11:50;;;;;;;14.57;4.13;;;;;;;12.99;100.00;100967.19;5258396;28;20025;-85
2022/10/22 06:14:23;;;;;;;15.32;4.30;;;;;;;12.98;100.00;100976.22;5259607;28;20091;-85
2022/10/22 06:16:54;;;;;;;11.52;3.92;;;;;;;13.00;100.00;100981.41;5262801;28;20035;-85
2022/10/22 06:19:26;;;;;;;14.05;3.97;;;;;;;13.00;100.00;100986.78;5264592;28;20704;-84
2022/10/22 06:21:57;;;;;;;9.77;3.80;;;;;;;13.01;100.00;100996.50;5264985;28;20053;-84
2022/10/22 06:24:29;;;;;;;14.20;3.97;;;;;;;13.07;100.00;101001.22;5271227;28;20699;-84
2022/10/22 06:27:00;;;;;;;13.70;3.92;;;;;;;13.08;100.00;100996.69;5262808;28;20022;-84
2022/10/22 06:29:32;;;;;;;11.93;4.03;;;;;;;13.15;100.00;101005.81;5264907;28;20422;-84
2022/10/22 06:32:04;;;;;;;9.45;3.70;;;;;;;13.04;100.00;100998.84;5259938;28;20355;-84
2022/10/22 06:34:35;;;;;;;13.73;3.85;;;;;;;13.08;100.00;101012.75;5257472;28;20056;-83
2022/10/22 06:37:10;;;;;;;9.13;3.90;;;;;;;13.05;100.00;101019.28;5264542;28;20017;-84
2022/10/22 06:39:41;;;;;;;11.45;3.50;;;;;;;12.99;100.00;101026.09;5257581;28;20029;-84
2022/10/22 06:42:12;;;;;;;12.48;3.88;;;;;;;12.98;100.00;101027.09;5255531;28;20497;-85
2022/10/22 06:44:44;;;;;;;12.07;3.42;;;;;;;12.99;100.00;101019.88;5260819;28;20171;-85
2022/10/22 06:47:15;;;;;;;14.70;4.07;;;;;;;12.81;100.00;101007.34;5296050;28;20043;-85
2022/10/22 06:49:48;;;;;;;12.70;3.80;;;;;;;12.99;100.00;101030.59;5262736;28;20037;-85
2022/10/22 06:52:20;;;;;;;14.15;3.83;;;;;;;12.90;100.00;101024.31;5276361;28;20517;-85
2022/10/22 06:54:54;;;;;;;12.15;3.63;;;;;;;12.94;100.00;101039.09;5261203;28;20104;-85
2022/10/22 06:57:26;;;;;;;10.30;3.38;;;;;;;12.94;100.00;101046.28;5294594;28;20025;-84
2022/10/22 06:59:57;;;;;;;10.18;3.08;;;;;;;12.96;100.00;101052.34;5260678;28;20028;-84
2022/10/22 07:02:29;;;;;;;13.27;3.83;;;;;;;12.97;100.00;101054.88;5265992;28;20042;-83
2022/10/22 07:05:00;;;;;;;12.45;3.53;;;;;;;13.00;100.00;101051.03;5261621;28;20026;-84
2022/10/22 07:07:31;;;;;;;13.05;4.03;;;;;;;12.99;100.00;101049.34;5266611;28;20033;-84
2022/10/22 07:10:09;;;;;;;11.13;3.90;;;;;;;13.08;100.00;101060.97;5262854;28;20064;-85
2022/10/22 07:12:44;;;;;;;9.05;3.85;;;;;;;13.32;100.00;101071.09;5298012;28;20067;-84
2022/10/22 07:15:15;;;;;;;9.82;3.42;;;;;;;13.50;100.00;101073.75;5260358;28;20048;-84
2022/10/22 07:17:47;;;;;;;13.18;3.40;;;;;;;13.74;100.00;101076.59;5268938;28;20025;-83
2022/10/22 07:20:21;;;;;;;14.80;3.22;;;;;;;14.06;100.00;101082.31;5266782;28;20094;-85
2022/10/22 07:22:58;;;;;;;12.68;3.47;;;;;;;14.46;100.00;101062.91;5268219;28;20144;-85
2022/10/22 07:25:30;;;;;;;12.35;3.28;;;;;;;14.63;100.00;101055.75;5263908;28;20164;-84
2022/10/22 07:28:26;;;;;;;6.78;2.50;;;;;;;15.03;100.00;101064.06;5264466;28;20124;-82
2022/10/22 07:31:34;;;;;;;9.80;2.70;;;;;;;15.85;100.00;101080.19;5279264;28;20493;-85
2022/10/22 07:34:05;;;;;;;4.82;3.00;;;;;;;15.81;100.00;101070.75;5259437;28;20037;-84
2022/10/22 07:36:56;;;;;;;;;;;;;;;;;;;;;
2022/10/22 07:39:45;;;;;;;13.23;2.97;;;;;;;16.36;100.00;101074.47;5267702;28;39713;-85
2022/10/22 07:42:16;;;;;;;7.90;3.13;;;;;;;16.90;100.00;101071.00;5276828;28;20036;-85
2022/10/22 07:45:04;;;;;;;8.02;2.20;;;;;;;17.92;100.00;101067.97;5260597;28;20029;-84
2022/10/22 07:47:35;;;;;;;9.32;2.40;;;;;;;18.33;100.00;101098.03;5264598;28;20041;-85
2022/10/22 07:50:07;;;;;;;11.10;2.35;;;;;;;17.79;100.00;101073.97;5285921;28;20473;-84
2022/10/22 07:52:38;;;;;;;8.15;2.10;;;;;;;17.82;100.00;101088.97;5264214;28;20497;-84
2022/10/22 07:55:10;;;;;;;7.50;2.13;;;;;;;17.62;100.00;101091.31;5263468;28;20025;-84
2022/10/22 07:57:41;;;;;;;4.35;1.90;;;;;;;17.20;100.00;101093.56;5264466;28;20037;-85
2022/10/22 08:00:15;;;;;;;8.43;2.50;;;;;;;16.78;100.00;101098.31;5276789;28;20056;-85
2022/10/22 08:02:47;;;;;;;6.18;1.98;;;;;;;16.37;100.00;101109.28;5262179;28;20092;-84
2022/10/22 08:05:18;;;;;;;11.43;2.10;;;;;;;16.31;100.00;101109.97;5263546;28;20025;-83
2022/10/22 08:07:50;;;;;;;6.97;2.13;;;;;;;16.69;100.00;101112.84;5258574;28;20045;-84
2022/10/22 08:10:25;;;;;;;7.07;2.05;;;;;;;17.04;100.00;101118.75;5260324;28;20119;-85
2022/10/22 08:16:00;;;;;;;12.02;2.10;;;;;;;18.07;100.00;101111.97;5260451;28;20041;-84
2022/10/22 08:18:35;;;;;;;6.60;1.92;;;;;;;17.60;100.00;101123.91;5259232;28;20446;-84
2022/10/22 08:21:06;;;;;;;10.68;2.53;;;;;;;17.74;100.00;101119.53;5256540;28;20021;-84
2022/10/22 08:27:41;;;;;;;9.30;2.10;;;;;;;17.67;100.00;101124.00;5254435;28;20045;-84
2022/10/22 08:31:08;;;;;;;8.90;2.13;;;;;;;17.42;100.00;101120.66;5262768;28;20060;-84
2022/10/22 08:33:40;;;;;;;9.57;1.90;;;;;;;17.81;100.00;101138.53;5239303;28;20089;-83
2022/10/22 08:36:21;;;;;;;9.48;2.38;;;;;;;17.97;100.00;101124.06;5259756;28;20039;-84
2022/10/22 08:38:58;;;;;;;6.82;2.33;;;;;;;17.77;100.00;101144.28;5255240;28;20035;-83
2022/10/22 08:41:48;;;;;;;13.48;2.33;;;;;;;17.69;100.00;101124.63;5263115;28;20021;-84
2022/10/22 08:44:50;;;;;;;11.63;2.35;;;;;;;17.69;100.00;101157.00;5260252;28;20041;-83
2022/10/22 08:47:40;;;;;;;8.93;2.38;;;;;;;17.91;100.00;101160.72;5261460;28;20117;-83
2022/10/22 08:50:18;;;;;;;10.38;2.90;;;;;;;17.70;100.00;101174.88;5255273;28;20537;-85
2022/10/22 08:52:58;;;;;;;12.48;2.13;;;;;;;17.52;100.00;101154.47;5262239;28;20033;-84
2022/10/22 08:55:30;;;;;;;8.27;2.13;;;;;;;17.49;100.00;101181.78;5266974;28;20025;-85
2022/10/22 08:58:29;;;;;;;4.80;1.55;;;;;;;17.67;100.00;101176.09;5271537;28;20029;-84
2022/10/22 09:01:09;;;;;;;6.88;1.70;;;;;;;17.33;100.00;101161.16;5255485;28;20105;-84
2022/10/22 09:03:51;;;;;;;9.30;2.17;;;;;;;17.38;100.00;101190.28;5291135;28;20053;-84
2022/10/22 09:06:30;;;;;;;8.77;1.77;;;;;;;17.32;100.00;101186.47;5261230;28;20048;-85
2022/10/22 09:09:11;;;;;;;7.05;1.95;;;;;;;17.25;100.00;101193.59;5257733;28;20026;-83
2022/10/22 09:11:45;;;;;;;11.57;2.30;;;;;;;17.18;100.00;101190.75;5256342;28;20484;-84
2022/10/22 09:14:24;;;;;;;7.28;1.92;;;;;;;17.17;100.00;101194.47;5264840;28;20053;-84
2022/10/22 09:17:43;;;;;;;11.30;2.22;;;;;;;16.84;100.00;101199.16;5261048;28;20036;-85
2022/10/22 09:20:25;;;;;;;12.60;2.38;;;;;;;16.64;100.00;101212.19;5261417;28;20125;-84
2022/10/22 09:23:34;;;;;;;9.38;2.28;;;;;;;16.86;100.00;101212.47;5260495;28;20026;-85
2022/10/22 09:26:14;;;;;;;6.65;1.75;;;;;;;16.76;100.00;101216.19;5280678;28;20032;-84
2022/10/22 09:28:49;;;;;;;8.65;2.08;;;;;;;16.60;100.00;101229.69;5261837;28;20208;-84
2022/10/22 09:31:26;;;;;;;10.45;2.47;;;;;;;16.63;100.00;101229.34;5265873;28;20030;-85
2022/10/22 09:34:00;;;;;;;8.93;2.17;;;;;;;16.61;100.00;101215.22;5280030;28;20462;-84
2022/10/22 09:36:32;;;;;;;7.20;2.05;;;;;;;16.54;100.00;101225.84;5271477;28;20501;-84
2022/10/22 09:39:19;;;;;;;6.28;1.77;;;;;;;16.68;100.00;101235.06;5264384;28;20443;-84
2022/10/22 09:41:50;;;;;;;;;;;;;;;16.71;100.00;101241.97;5259347;28;20017;-83
2022/10/22 09:44:22;;;;;;;10.50;2.08;;;;;;;16.56;100.00;101242.66;5274077;28;19917;-85
2022/10/22 09:46:54;;;;;;;11.13;3.05;;;;;;;16.58;100.00;101237.09;5262324;28;20028;-84
2022/10/22 09:49:31;;;;;;;10.15;2.60;;;;;;;16.68;100.00;101237.75;5259874;28;20425;-85
2022/10/22 09:52:24;;;;;;;9.77;2.22;;;;;;;16.87;100.00;101247.31;5262297;28;20029;-84
2022/10/22 09:54:56;;;;;;;9.07;2.40;;;;;;;16.84;100.00;101244.13;5251006;28;20427;-84
2022/10/22 09:57:28;;;;;;;6.45;1.90;;;;;;;16.94;100.00;101255.56;5269385;28;20048;-84
2022/10/22 09:59:59;;;;;;;9.32;2.17;;;;;;;16.95;100.00;101262.59;5265689;28;20062;-84
2022/10/22 10:02:30;;;;;;;7.40;1.95;;;;;;;17.01;100.00;101273.53;5261657;28;33674;-84
2022/10/22 10:05:03;;;;;;;7.75;2.08;;;;;;;16.85;100.00;101270.03;5263711;28;20032;-84
2022/10/22 10:07:35;;;;;;;9.02;2.30;;;;;;;16.73;100.00;101272.25;5270449;28;20494;-84
2022/10/22 10:10:32;;;;;;;8.40;2.40;;;;;;;16.80;100.00;101284.03;5273106;28;20029;-84
2022/10/22 10:13:25;;;;;;;6.85;2.33;;;;;;;16.78;100.00;101286.88;5272106;28;20029;-84
2022/10/22 10:16:06;;;;;;;9.45;2.53;;;;;;;16.84;100.00;101289.94;5269644;28;20037;-84
2022/10/22 10:18:53;;;;;;;9.55;2.65;;;;;;;16.81;100.00;101293.75;5266600;28;21251;-83
2022/10/22 10:21:33;;;;;;;9.68;2.42;;;;;;;16.80;100.00;101294.78;5268227;28;20083;-84
2022/10/22 10:24:13;;;;;;;11.13;2.25;;;;;;;17.03;100.00;101300.31;5277006;28;20040;-83
2022/10/22 10:26:54;;;;;;;8.20;2.10;;;;;;;17.31;100.00;101295.31;5268471;28;20104;-84
2022/10/22 10:29:49;;;;;;;6.57;2.10;;;;;;;17.64;100.00;101291.59;5264632;28;20033;-84
2022/10/22 10:32:47;;;;;;;10.85;2.28;;;;;;;17.87;100.00;101297.88;5263830;28;20033;-84
2022/10/22 10:35:29;;;;;;;7.78;2.03;;;;;;;18.06;100.00;101299.25;5266494;28;20044;-84
2022/10/22 10:38:15;;;;;;;9.10;2.22;;;;;;;18.08;100.00;101305.31;5272586;28;20031;-84
2022/10/22 10:40:55;;;;;;;7.77;2.03;;;;;;;18.39;100.00;101300.84;5266429;28;20518;-85
2022/10/22 10:43:38;;;;;;;8.68;2.22;;;;;;;19.14;100.00;101305.28;5255566;28;20128;-85
2022/10/22 10:46:20;;;;;;;9.85;2.30;;;;;;;19.15;100.00;101293.47;5268693;28;20037;-85
2022/10/22 10:48:58;;;;;;;7.68;2.17;;;;;;;19.05;100.00;101285.63;5271419;28;20064;-84
2022/10/22 10:51:55;;;;;;;9.48;1.95;;;;;;;19.70;100.00;101320.13;5257931;28;21316;-84
2022/10/22 10:54:54;;;;;;;10.13;2.22;;;;;;;20.34;100.00;101327.47;5256845;28;20039;-84
2022/10/22 10:57:44;;;;;;;10.73;2.28;;;;;;;20.05;100.00;101310.31;5258225;28;20036;-84
2022/10/22 11:00:21;;;;;;;10.75;2.35;;;;;;;19.60;100.00;101285.25;5259360;28;20126;-85
2022/10/22 11:03:26;;;;;;;10.00;2.30;;;;;;;20.17;100.00;101311.47;5255259;28;20490;-84
2022/10/22 11:06:01;;;;;;;8.88;2.08;;;;;;;20.30;100.00;101296.38;5257710;28;20109;-85
2022/10/22 11:08:44;;;;;;;9.73;2.10;;;;;;;19.93;100.00;101284.78;5280302;28;20445;-84
2022/10/22 11:11:42;;;;;;;6.53;2.30;;;;;;;20.46;100.00;101308.78;5273552;28;20033;-84
2022/10/22 11:14:20;;;;;;;11.45;2.55;;;;;;;21.74;100.00;101303.03;5258059;28;20029;-84
2022/10/22 11:17:00;;;;;;;8.43;2.28;;;;;;;23.45;100.00;101296.00;5258002;28;20037;-84
2022/10/22 11:19:52;;;;;;;15.40;3.20;;;;;;;23.65;100.00;101306.75;5260239;28;20029;-84
2022/10/22 11:23:02;;;;;;;10.18;2.45;;;;;;;22.17;100.00;101308.94;5261668;28;20067;-84
2022/10/22 11:25:41;;;;;;;11.65;3.08;;;;;;;20.99;100.00;101305.66;5256633;28;20033;-84
2022/10/22 11:28:27;;;;;;;11.10;3.15;;;;;;;21.10;100.00;101314.03;5289722;28;20503;-84
2022/10/22 11:31:11;;;;;;;9.20;2.00;;;;;;;22.64;100.00;101296.22;5260369;28;20040;-85
2022/10/22 11:33:54;;;;;;;9.27;2.35;;;;;;;24.48;100.00;101298.44;5254172;28;20034;-84
2022/10/22 11:36:28;;;;;;;6.82;2.05;;;;;;;25.55;100.00;101293.72;5252817;28;20032;-84
2022/10/22 11:39:03;;;;;;;9.32;1.95;;;;;;;25.00;100.00;101286.38;5258063;28;20101;-84
2022/10/22 11:41:35;;;;;;;8.52;2.40;;;;;;;25.37;100.00;101279.03;5254777;28;20037;-84
2022/10/22 11:44:06;;;;;;;8.23;2.17;;;;;;;25.80;100.00;101285.34;5258103;28;20115;-84
2022/10/22 11:46:46;;;;;;;9.02;2.00;;;;;;;25.48;100.00;101291.06;5258626;28;22257;-83
2022/10/22 11:49:53;;;;;;;7.97;2.22;;;;;;;25.04;100.00;101291.16;5262734;28;20037;-84
2022/10/22 11:52:30;;;;;;;8.32;1.98;;;;;;;24.45;100.00;101293.41;5284620;28;20072;-84
2022/10/22 11:55:54;;;;;;;10.30;2.20;;;;;;;23.73;100.00;101296.44;5262704;28;20031;-84
2022/10/22 11:58:30;;;;;;;8.52;2.30;;;;;;;22.50;100.00;101291.00;5289429;28;20108;-84
2022/10/22 12:01:01;;;;;;;9.57;2.20;;;;;;;21.80;100.00;101288.66;5260849;28;20087;-84
2022/10/22 12:03:33;;;;;;;9.83;2.47;;;;;;;21.36;100.00;101285.34;5277993;28;20128;-84
2022/10/22 12:06:18;;;;;;;9.90;1.83;;;;;;;21.18;100.00;101291.34;5266764;28;21008;-84